KMYV/MYV METAR and TAF weather

Enter ICAO airport designator
Station Type Date Time Source
KMYV METAR 2021/05/14 12:53 UTC NOAA

KMYV 141253Z AUTO 23003KT 10SM CLR 12/08 A2990 RMK AO2 SLP127 T01170083 $


Station Type Date Time Source
KMYV Decoded METAR 2021/05/14 12:53 UTC NOAA

MARYSVILLE YUBA COUNTY, CA, United States (KMYV) 39-06N 121-34W 21M
May 14, 2021 - 08:53 AM EDT / 2021.05.14 1253 UTC
Wind: from the SW (230 degrees) at 3 MPH (3 KT):0
Visibility: 10 mile(s):0
Sky conditions: clear
Temperature: 53.1 F (11.7 C)
Dew Point: 46.9 F (8.3 C)
Relative Humidity: 79%
Pressure (altimeter): 29.9 in. Hg (1012 hPa)
ob: KMYV 141253Z AUTO 23003KT 10SM CLR 12/08 A2990 RMK AO2 SLP127 T01170083
cycle: 13

Station Type Date Time Source
KMYV TAF UTC NOAA

Error!

Example: see airport list